Time;durP1;ratioP1;P1;durP2;ratioP2;P2;SDS_P1;SDS_P2;PMS_P1;PMS_P2;Temp;Humidity;BMP_temperature;BMP_pressure;BME280_temperature;BME280_humidity;BME280_pressure;Samples;Min_cycle;Max_cycle;Signal;HPM_P1;HPM_P2
2022/11/02 00:03:54;;;;;;;27.47;17.77;;;10.00;99.90;;;;;;8395924;28;20248;-69
2022/11/02 00:07:55;;;;;;;29.17;17.30;;;9.90;99.90;;;;;;8412926;28;20186;-70
2022/11/02 00:11:55;;;;;;;29.13;17.37;;;10.00;99.90;;;;;;8395378;28;20257;-70
2022/11/02 00:15:59;;;;;;;29.40;16.87;;;9.90;99.90;;;;;;8414137;28;20249;-70
2022/11/02 00:20:02;;;;;;;30.83;17.70;;;9.90;99.90;;;;;;8401253;28;20174;-70
2022/11/02 00:24:05;;;;;;;29.17;18.47;;;9.90;99.90;;;;;;8418890;28;20185;-69
2022/11/02 00:28:06;;;;;;;27.87;18.03;;;9.80;99.90;;;;;;8401876;28;20394;-68
2022/11/02 00:32:07;;;;;;;31.57;18.47;;;9.80;99.90;;;;;;8400092;28;20187;-69
2022/11/02 00:36:08;;;;;;;28.53;17.03;;;9.80;99.90;;;;;;8402068;28;20300;-69
2022/11/02 00:40:09;;;;;;;26.43;17.00;;;9.80;99.90;;;;;;8398374;28;20183;-69
2022/11/02 00:44:10;;;;;;;27.23;17.23;;;9.80;99.90;;;;;;8420091;28;20182;-69
2022/11/02 00:48:11;;;;;;;29.87;17.50;;;9.80;99.90;;;;;;8420450;28;20244;-70
2022/11/02 00:52:11;;;;;;;26.43;16.77;;;9.80;99.90;;;;;;8400347;28;20278;-70
2022/11/02 00:56:12;;;;;;;27.83;16.53;;;9.70;99.90;;;;;;8402049;28;20221;-69
2022/11/02 01:00:14;;;;;;;27.27;16.17;;;9.70;99.90;;;;;;8399683;28;20217;-69
2022/11/02 01:04:19;;;;;;;28.93;16.17;;;9.60;99.90;;;;;;8401707;28;20307;-69
2022/11/02 01:08:19;;;;;;;30.33;15.73;;;9.60;99.90;;;;;;8418261;28;20323;-70
2022/11/02 01:12:20;;;;;;;27.10;16.30;;;9.50;99.90;;;;;;8400611;28;20251;-69
2022/11/02 01:16:21;;;;;;;27.00;15.60;;;9.50;99.90;;;;;;8399742;28;20216;-70
2022/11/02 01:20:22;;;;;;;26.97;15.40;;;9.40;99.90;;;;;;8418480;28;20179;-69
2022/11/02 01:24:23;;;;;;;28.00;15.23;;;9.40;99.90;;;;;;8408087;28;20325;-70
2022/11/02 01:28:24;;;;;;;24.40;15.47;;;9.40;99.90;;;;;;8400528;28;20211;-69
2022/11/02 01:32:27;;;;;;;26.07;15.90;;;9.40;99.90;;;;;;8414760;28;20203;-70
2022/11/02 01:36:28;;;;;;;29.10;15.67;;;9.30;99.90;;;;;;8418496;28;20211;-70
2022/11/02 01:40:38;;;;;;;25.23;15.23;;;9.30;99.90;;;;;;8398210;28;20178;-70
2022/11/02 01:44:40;;;;;;;25.20;15.40;;;9.30;99.90;;;;;;8399193;28;20329;-70
2022/11/02 01:48:45;;;;;;;27.30;15.53;;;9.30;99.90;;;;;;8415468;28;20377;-69
2022/11/02 01:52:46;;;;;;;24.83;14.60;;;9.30;99.90;;;;;;8400513;28;20267;-69
2022/11/02 01:56:52;;;;;;;23.50;14.37;;;9.20;99.90;;;;;;8399302;28;20199;-70
2022/11/02 02:00:54;;;;;;;24.83;13.90;;;9.20;99.90;;;;;;8395913;28;20184;-70
2022/11/02 02:05:09;;;;;;;25.13;14.20;;;9.20;99.90;;;;;;8418310;28;20623;-69
2022/11/02 02:09:13;;;;;;;22.13;13.50;;;9.20;99.90;;;;;;8397701;28;20249;-68
2022/11/02 02:13:14;;;;;;;21.80;13.77;;;9.20;99.90;;;;;;8397464;28;20214;-68
2022/11/02 02:17:25;;;;;;;23.93;14.23;;;9.20;99.90;;;;;;8398177;28;20519;-69
2022/11/02 02:21:38;;;;;;;23.90;13.33;;;9.20;99.90;;;;;;8415665;28;20207;-69
2022/11/02 02:25:42;;;;;;;21.93;13.27;;;9.30;99.90;;;;;;8414521;28;20212;-69
2022/11/02 02:30:03;;;;;;;20.53;13.00;;;9.40;99.90;;;;;;8416058;28;20184;-69
2022/11/02 02:34:18;;;;;;;22.50;12.50;;;9.50;99.90;;;;;;8395959;28;20216;-69
2022/11/02 02:38:32;;;;;;;22.10;12.57;;;9.50;99.90;;;;;;8411391;28;20205;-70
2022/11/02 02:42:53;;;;;;;18.33;12.07;;;9.60;99.90;;;;;;8415488;28;20204;-71
2022/11/02 02:47:03;;;;;;;20.07;12.13;;;9.60;99.90;;;;;;8415955;28;20177;-69
2022/11/02 02:51:08;;;;;;;18.20;11.63;;;9.50;99.90;;;;;;8398054;28;20169;-69
2022/11/02 02:55:14;;;;;;;17.20;10.77;;;9.40;99.90;;;;;;8415760;28;20227;-69
2022/11/02 02:59:23;;;;;;;17.57;11.17;;;9.30;99.90;;;;;;8392946;28;20272;-69
2022/11/02 03:03:27;;;;;;;19.73;11.93;;;9.20;99.90;;;;;;8415687;28;20201;-70
2022/11/02 03:07:34;;;;;;;19.67;11.70;;;9.20;99.90;;;;;;8414040;28;20200;-70
2022/11/02 03:12:00;;;;;;;17.80;12.17;;;9.10;99.90;;;;;;8396316;28;20200;-69
2022/11/02 03:16:23;;;;;;;17.03;10.90;;;9.00;99.90;;;;;;8396666;28;20220;-69
2022/11/02 03:20:36;;;;;;;17.33;11.40;;;9.00;99.90;;;;;;8394033;28;20188;-69
2022/11/02 03:24:49;;;;;;;20.90;11.50;;;8.90;99.90;;;;;;8395354;28;20192;-69
2022/11/02 03:29:12;;;;;;;17.33;11.17;;;8.90;99.90;;;;;;8408893;28;20191;-69
2022/11/02 03:33:36;;;;;;;22.23;12.00;;;8.90;99.90;;;;;;8413822;28;20257;-69
2022/11/02 03:37:43;;;;;;;19.80;12.10;;;8.80;99.90;;;;;;8411233;28;20279;-69
2022/11/02 03:41:47;;;;;;;21.30;12.27;;;8.80;99.90;;;;;;8412644;28;20212;-69
2022/11/02 03:45:54;;;;;;;15.67;10.40;;;8.70;99.90;;;;;;8389662;28;20185;-68
2022/11/02 03:49:57;;;;;;;18.33;11.47;;;8.70;99.90;;;;;;8412152;28;20253;-74
2022/11/02 03:54:07;;;;;;;18.30;10.90;;;8.80;99.90;;;;;;8414852;28;20224;-69
2022/11/02 03:58:11;;;;;;;17.90;11.90;;;8.70;99.90;;;;;;8397337;28;20250;-69
2022/11/02 04:02:13;;;;;;;19.63;11.97;;;8.70;99.90;;;;;;8348621;28;1285385;-69
2022/11/02 04:06:15;;;;;;;21.97;12.20;;;8.70;99.90;;;;;;8397388;28;20470;-69
2022/11/02 04:10:15;;;;;;;19.00;11.83;;;8.60;99.90;;;;;;8395674;28;20321;-69
2022/11/02 04:27:14;;;;;;;21.17;13.30;;;8.50;99.90;;;;;;8411760;28;20180;-69
2022/11/02 04:31:15;;;;;;;20.83;12.30;;;8.40;99.90;;;;;;8393946;28;20185;-69
2022/11/02 04:35:16;;;;;;;19.30;12.93;;;8.40;99.90;;;;;;8395763;28;20204;-68
2022/11/02 04:39:17;;;;;;;20.37;13.07;;;8.30;99.90;;;;;;8412834;28;20185;-68
2022/11/02 04:43:17;;;;;;;19.43;11.83;;;8.30;99.90;;;;;;8394478;28;20184;-69
2022/11/02 04:47:18;;;;;;;20.27;12.50;;;8.20;99.90;;;;;;8412914;28;20188;-69
2022/11/02 04:51:20;;;;;;;22.13;13.53;;;8.10;99.90;;;;;;8389319;28;20278;-68
2022/11/02 04:55:21;;;;;;;17.50;11.60;;;8.10;99.90;;;;;;8394679;28;20205;-69
2022/11/02 04:59:22;;;;;;;19.90;11.90;;;8.10;99.90;;;;;;8391061;28;20204;-69
2022/11/02 05:03:23;;;;;;;18.17;12.03;;;8.00;99.90;;;;;;8416071;28;20203;-69
2022/11/02 05:07:23;;;;;;;22.80;12.17;;;8.00;99.90;;;;;;8400338;28;20283;-69
2022/11/02 05:11:24;;;;;;;17.63;11.07;;;8.00;99.90;;;;;;8414952;28;20184;-69
2022/11/02 05:15:25;;;;;;;20.90;11.43;;;7.90;99.90;;;;;;8400929;28;20258;-70
2022/11/02 05:19:26;;;;;;;20.07;11.63;;;7.90;99.90;;;;;;8393779;28;20180;-68
2022/11/02 05:23:28;;;;;;;17.80;10.90;;;7.90;99.90;;;;;;8420714;28;20285;-68
2022/11/02 05:27:29;;;;;;;22.77;11.87;;;7.90;99.90;;;;;;8399564;28;20176;-69
2022/11/02 05:31:29;;;;;;;18.07;11.77;;;7.90;99.90;;;;;;8419735;28;20267;-69
2022/11/02 05:35:30;;;;;;;22.90;11.83;;;7.90;99.90;;;;;;8419510;28;20291;-68
2022/11/02 05:39:31;;;;;;;20.10;11.13;;;7.90;99.90;;;;;;8402568;28;20249;-68
2022/11/02 05:43:32;;;;;;;20.00;10.77;;;7.90;99.90;;;;;;8400303;28;20183;-68
2022/11/02 05:47:33;;;;;;;20.97;12.00;;;8.00;99.90;;;;;;8396329;28;20180;-69
2022/11/02 05:51:34;;;;;;;20.80;11.10;;;8.00;99.90;;;;;;8400243;28;20180;-68
2022/11/02 05:55:34;;;;;;;20.87;11.23;;;8.00;99.90;;;;;;8400081;28;20262;-69
2022/11/02 05:59:35;;;;;;;19.07;11.17;;;8.00;99.90;;;;;;8398244;28;20239;-69
2022/11/02 06:03:36;;;;;;;16.67;10.53;;;7.90;99.90;;;;;;8398980;28;20208;-69
2022/11/02 06:07:37;;;;;;;17.10;11.47;;;7.90;99.90;;;;;;8398302;28;20184;-69
2022/11/02 06:11:38;;;;;;;18.07;11.67;;;7.90;99.90;;;;;;8418386;28;20180;-69
2022/11/02 06:15:39;;;;;;;18.20;10.90;;;7.80;99.90;;;;;;8397814;28;20290;-69
2022/11/02 06:19:39;;;;;;;23.23;12.17;;;7.90;99.90;;;;;;8400078;28;20198;-70
2022/11/02 06:23:42;;;;;;;19.47;11.23;;;7.90;99.90;;;;;;8396814;28;20188;-68
2022/11/02 06:27:55;;;;;;;20.67;11.23;;;7.90;99.90;;;;;;8417340;28;20191;-69
2022/11/02 06:31:56;;;;;;;19.53;10.53;;;8.00;99.90;;;;;;8397274;28;20252;-68
2022/11/02 06:35:57;;;;;;;20.07;11.13;;;8.00;99.90;;;;;;8415054;28;20305;-68
2022/11/02 06:39:57;;;;;;;18.73;11.73;;;8.00;99.90;;;;;;8397491;28;20180;-69
2022/11/02 06:43:58;;;;;;;20.00;11.57;;;8.10;99.90;;;;;;8398677;28;20191;-67
2022/11/02 06:47:59;;;;;;;19.83;11.27;;;8.10;99.90;;;;;;8397793;28;20160;-69
2022/11/02 06:52:00;;;;;;;18.13;11.13;;;8.10;99.90;;;;;;8397084;28;20208;-69
2022/11/02 06:56:01;;;;;;;22.30;10.77;;;8.20;99.90;;;;;;8395311;28;20220;-69
2022/11/02 07:00:06;;;;;;;16.37;9.60;;;8.30;99.90;;;;;;8400882;28;20262;-69
2022/11/02 07:04:07;;;;;;;17.90;9.97;;;8.30;99.90;;;;;;8415783;28;20189;-70
2022/11/02 07:08:08;;;;;;;14.47;8.20;;;8.50;99.90;;;;;;8395392;28;20275;-69
2022/11/02 07:12:09;;;;;;;15.57;9.47;;;8.70;99.90;;;;;;8398081;28;20188;-70
2022/11/02 07:16:10;;;;;;;14.80;8.90;;;8.80;99.90;;;;;;8413247;28;20322;-69
2022/11/02 07:20:10;;;;;;;17.90;9.77;;;9.00;99.90;;;;;;8412686;28;20206;-68
2022/11/02 07:24:11;;;;;;;18.33;9.03;;;9.20;99.90;;;;;;8414924;28;20177;-69
2022/11/02 07:28:12;;;;;;;13.40;8.90;;;9.40;99.90;;;;;;8395719;28;20184;-69
2022/11/02 07:32:13;;;;;;;13.13;9.07;;;9.50;99.90;;;;;;8413868;28;20187;-69
2022/11/02 07:36:14;;;;;;;16.00;8.30;;;9.60;99.90;;;;;;8412965;28;20497;-69
2022/11/02 07:40:15;;;;;;;10.67;7.73;;;9.80;99.90;;;;;;8395372;28;20254;-68
2022/11/02 07:44:16;;;;;;;13.40;8.93;;;9.90;99.90;;;;;;8415548;28;20210;-69
2022/11/02 07:48:16;;;;;;;13.50;8.57;;;10.10;99.90;;;;;;8413586;28;20189;-68
2022/11/02 07:52:17;;;;;;;12.10;8.13;;;10.30;99.90;;;;;;8415006;28;20195;-69
2022/11/02 07:56:18;;;;;;;13.20;8.33;;;10.40;99.90;;;;;;8413286;28;20214;-70
2022/11/02 08:00:19;;;;;;;13.87;7.80;;;10.60;99.90;;;;;;8392781;28;20218;-69
2022/11/02 08:04:20;;;;;;;13.60;7.73;;;10.70;99.90;;;;;;8414199;28;20203;-69
2022/11/02 08:08:22;;;;;;;14.43;7.77;;;10.80;99.90;;;;;;8396210;28;20264;-69
2022/11/02 08:12:23;;;;;;;12.07;7.27;;;11.00;99.90;;;;;;8412163;28;20191;-69
2022/11/02 08:16:24;;;;;;;13.00;7.07;;;11.20;99.90;;;;;;8410833;28;20218;-69
2022/11/02 08:20:25;;;;;;;14.40;7.73;;;11.30;99.90;;;;;;8395296;28;20252;-68
2022/11/02 08:24:26;;;;;;;9.77;6.40;;;11.50;99.90;;;;;;8393698;28;20233;-69
2022/11/02 08:28:35;;;;;;;11.77;6.50;;;11.70;99.90;;;;;;8411822;28;20176;-70
2022/11/02 08:32:36;;;;;;;12.00;6.67;;;11.90;99.90;;;;;;8389439;28;20216;-69
2022/11/02 08:36:36;;;;;;;12.80;7.07;;;12.10;99.90;;;;;;8412750;28;20215;-69
2022/11/02 08:40:37;;;;;;;14.30;6.90;;;12.10;99.90;;;;;;8417071;28;20291;-70
2022/11/02 08:44:38;;;;;;;11.90;6.67;;;12.20;99.90;;;;;;8396888;28;20188;-68
2022/11/02 08:48:39;;;;;;;12.67;6.40;;;12.30;99.90;;;;;;8401015;28;20222;-70
2022/11/02 08:52:40;;;;;;;10.80;5.73;;;12.40;99.90;;;;;;8420082;28;20185;-69
2022/11/02 08:56:40;;;;;;;18.37;5.50;;;12.60;99.90;;;;;;8419583;28;20203;-69
2022/11/02 09:00:41;;;;;;;14.93;7.57;;;12.70;1.00;;;;;;8413529;28;20223;-68
2022/11/02 09:04:42;;;;;;;8.93;6.20;;;12.80;99.90;;;;;;8418395;28;20196;-70
2022/11/02 09:08:43;;;;;;;10.37;5.60;;;12.80;99.90;;;;;;8399616;28;20287;-67
2022/11/02 09:12:43;;;;;;;10.73;5.83;;;12.90;76.70;;;;;;8419554;28;20235;-67
2022/11/02 09:16:44;;;;;;;9.70;5.03;;;13.10;37.60;;;;;;8399881;28;20205;-68
2022/11/02 09:20:46;;;;;;;9.10;5.10;;;13.20;1.00;;;;;;8414734;28;20173;-69
2022/11/02 09:24:47;;;;;;;9.93;5.33;;;13.20;99.90;;;;;;8419614;28;20177;-69
2022/11/02 09:28:48;;;;;;;11.77;5.50;;;13.40;1.00;;;;;;8398360;28;20181;-67
2022/11/02 09:33:01;;;;;;;8.83;5.40;;;13.50;99.90;;;;;;8400455;28;20472;-68
2022/11/02 09:37:02;;;;;;;9.57;5.03;;;13.60;99.90;;;;;;8397213;28;20183;-68
2022/11/02 09:41:16;;;;;;;9.13;4.73;;;13.70;99.90;;;;;;8399739;28;20184;-68
2022/11/02 09:45:19;;;;;;;8.70;5.00;;;13.70;73.10;;;;;;8404640;28;20173;-68
2022/11/02 09:49:23;;;;;;;10.00;4.73;;;13.80;99.90;;;;;;8397755;28;20189;-69
2022/11/02 09:53:38;;;;;;;9.37;4.77;;;14.00;99.90;;;;;;8418368;28;20205;-69
2022/11/02 09:57:44;;;;;;;9.73;4.53;;;14.10;99.90;;;;;;8414820;28;20300;-68
2022/11/02 10:02:16;;;;;;;6.33;4.23;;;14.20;25.30;;;;;;8417259;28;20185;-69
2022/11/02 10:06:20;;;;;;;7.93;3.97;;;14.30;1.00;;;;;;8398494;28;20200;-68
2022/11/02 10:10:58;;;;;;;5.63;3.10;;;14.40;1.00;;;;;;8397913;28;20609;-68
2022/11/02 10:15:39;;;;;;;7.53;3.80;;;14.50;1.00;;;;;;8403555;28;20268;-69
2022/11/02 10:19:43;;;;;;;6.43;3.90;;;14.70;99.90;;;;;;8371584;28;20224;-68
2022/11/02 10:23:51;;;;;;;6.83;3.40;;;14.60;99.90;;;;;;8416883;28;20184;-69
2022/11/02 10:28:03;;;;;;;9.13;3.73;;;14.70;99.90;;;;;;8398621;28;20203;-69
2022/11/02 10:32:04;;;;;;;6.43;3.53;;;14.90;99.90;;;;;;8396735;28;20204;-68
2022/11/02 10:36:24;;;;;;;10.33;4.10;;;15.00;99.90;;;;;;8413348;28;20273;-68
2022/11/02 10:40:47;;;;;;;9.53;3.30;;;15.10;99.90;;;;;;8412466;28;20234;-69
2022/11/02 10:45:05;;;;;;;8.67;3.17;;;15.20;99.90;;;;;;8414952;28;20275;-71
2022/11/02 10:49:13;;;;;;;8.27;3.20;;;15.10;99.90;;;;;;8400754;28;20224;-68
2022/11/02 10:53:18;;;;;;;8.60;3.40;;;15.10;99.90;;;;;;8397535;28;20184;-68
2022/11/02 10:57:22;;;;;;;6.97;3.47;;;15.10;99.90;;;;;;8412439;28;20250;-68
2022/11/02 11:01:24;;;;;;;5.50;3.17;;;15.20;99.90;;;;;;8393867;28;20187;-68
2022/11/02 11:05:25;;;;;;;5.83;3.00;;;15.10;99.90;;;;;;8396801;28;20200;-68
2022/11/02 11:09:36;;;;;;;7.53;3.87;;;15.10;99.90;;;;;;8411878;28;20279;-68
2022/11/02 11:13:42;;;;;;;8.40;2.70;;;15.20;99.90;;;;;;8411531;28;20205;-70
2022/11/02 11:17:46;;;;;;;9.77;3.90;;;15.10;99.90;;;;;;8410532;28;20185;-67
2022/11/02 11:21:50;;;;;;;7.50;3.43;;;15.10;99.90;;;;;;8396163;28;20181;-68
2022/11/02 11:26:04;;;;;;;8.43;3.67;;;15.20;99.90;;;;;;8396430;28;20188;-68
2022/11/02 11:30:25;;;;;;;10.33;3.40;;;15.30;99.90;;;;;;8413340;28;20185;-67
2022/11/02 11:34:32;;;;;;;6.33;2.90;;;15.40;99.90;;;;;;8414130;28;20247;-68
2022/11/02 11:38:33;;;;;;;7.27;4.10;;;15.50;99.90;;;;;;8394303;28;20200;-68
2022/11/02 11:42:36;;;;;;;6.23;2.87;;;15.60;99.90;;;;;;8391637;28;20245;-68
2022/11/02 11:46:49;;;;;;;6.57;3.20;;;15.60;99.90;;;;;;8411160;28;20200;-69
2022/11/02 11:50:50;;;;;;;7.73;3.10;;;15.60;99.90;;;;;;8393490;28;20181;-69
2022/11/02 11:54:56;;;;;;;6.67;3.20;;;15.70;99.90;;;;;;8393557;28;20219;-69
2022/11/02 11:58:57;;;;;;;7.00;3.10;;;15.60;99.90;;;;;;8392450;28;20307;-70
2022/11/02 12:03:10;;;;;;;5.30;3.33;;;15.50;99.90;;;;;;8396587;28;20198;-69
2022/11/02 12:07:17;;;;;;;8.70;3.90;;;15.40;99.90;;;;;;8412400;28;20180;-69
2022/11/02 12:11:33;;;;;;;7.17;3.43;;;15.30;99.90;;;;;;8396569;28;20185;-69
2022/11/02 12:15:57;;;;;;;10.77;4.10;;;15.30;99.90;;;;;;8415624;28;20204;-69
2022/11/02 12:20:22;;;;;;;6.43;3.47;;;15.50;99.90;;;;;;8419028;28;20594;-70
2022/11/02 12:24:57;;;;;;;9.87;4.30;;;15.60;99.90;;;;;;8420452;28;20185;-70
2022/11/02 12:29:58;;;;;;;6.27;3.30;;;15.60;99.90;;;;;;8402480;28;20265;-69
2022/11/02 12:34:20;;;;;;;6.10;3.07;;;15.60;99.90;;;;;;8299723;28;20206;-69
2022/11/02 12:38:42;;;;;;;10.40;3.80;;;15.70;99.90;;;;;;8353449;28;20183;-70
2022/11/02 12:43:03;;;;;;;6.33;3.53;;;15.70;99.90;;;;;;8419508;28;20263;-70
2022/11/02 12:47:39;;;;;;;11.73;4.17;;;15.70;99.90;;;;;;8417532;28;20199;-69
2022/11/02 12:52:03;;;;;;;9.87;4.63;;;15.50;99.90;;;;;;8362444;28;20208;-69
2022/11/02 12:56:07;;;;;;;7.07;4.37;;;15.20;99.90;;;;;;8400474;28;20480;-69
2022/11/02 13:00:22;;;;;;;8.03;4.03;;;15.00;99.90;;;;;;8416887;28;20197;-69
2022/11/02 13:04:31;;;;;;;8.03;3.93;;;15.10;1.00;;;;;;8417978;28;20207;-68
2022/11/02 13:08:57;;;;;;;11.10;4.37;;;15.30;99.90;;;;;;8416088;28;20371;-68
2022/11/02 13:13:02;;;;;;;8.90;3.90;;;15.30;99.90;;;;;;8416814;28;20188;-67
2022/11/02 13:17:20;;;;;;;6.53;3.60;;;15.20;99.90;;;;;;8417572;28;20181;-67
2022/11/02 13:21:39;;;;;;;5.47;3.30;;;15.20;99.90;;;;;;8398992;28;20204;-68
2022/11/02 13:26:17;;;;;;;9.17;4.10;;;15.10;99.90;;;;;;8400411;28;20180;-67
2022/11/02 13:30:19;;;;;;;6.03;3.37;;;15.00;99.90;;;;;;8348916;28;20193;-68
2022/11/02 13:34:43;;;;;;;3.87;2.77;;;15.00;99.90;;;;;;8399549;28;20223;-69
2022/11/02 13:38:55;;;;;;;6.53;3.03;;;14.80;99.90;;;;;;8412624;28;20180;-69
2022/11/02 13:43:45;;;;;;;8.53;3.17;;;14.80;99.90;;;;;;8396081;28;20173;-68
2022/11/02 13:48:07;;;;;;;4.53;2.77;;;14.80;99.90;;;;;;8349011;28;20200;-68
2022/11/02 13:52:15;;;;;;;9.53;3.30;;;14.60;99.90;;;;;;8397447;28;20290;-68
2022/11/02 13:56:24;;;;;;;5.97;2.97;;;14.40;1.00;;;;;;8415221;28;20513;-68
2022/11/02 14:00:40;;;;;;;5.57;3.27;;;14.20;99.90;;;;;;8416817;28;20205;-69
2022/11/02 14:04:43;;;;;;;4.67;3.23;;;14.00;1.00;;;;;;8415135;28;20208;-70
2022/11/02 14:09:07;;;;;;;6.13;3.17;;;13.90;1.00;;;;;;8392546;28;20219;-69
2022/11/02 14:13:13;;;;;;;9.80;3.93;;;13.70;99.90;;;;;;8415608;28;20188;-70
2022/11/02 14:17:15;;;;;;;7.77;3.90;;;13.60;99.90;;;;;;8396056;28;20177;-75
2022/11/02 14:21:42;;;;;;;10.00;4.03;;;13.50;99.90;;;;;;8414241;28;20192;-70
2022/11/02 14:25:51;;;;;;;5.87;3.10;;;13.30;99.90;;;;;;8394189;28;20225;-71
2022/11/02 14:29:54;;;;;;;5.20;2.77;;;13.20;99.90;;;;;;8412255;28;20189;-71
2022/11/02 14:34:23;;;;;;;6.30;3.07;;;13.00;1.00;;;;;;8396697;28;20215;-71
2022/11/02 14:38:53;;;;;;;7.40;3.57;;;12.90;1.00;;;;;;8400679;28;20176;-71
2022/11/02 14:43:11;;;;;;;5.57;3.37;;;12.70;99.90;;;;;;8389788;28;20556;-70
2022/11/02 14:47:15;;;;;;;9.50;3.47;;;12.70;99.90;;;;;;8411316;28;20180;-70
2022/11/02 14:51:26;;;;;;;5.20;3.00;;;12.70;99.90;;;;;;8411887;28;20185;-70
2022/11/02 14:55:33;;;;;;;6.80;3.00;;;12.70;99.90;;;;;;8414353;28;20239;-70
2022/11/02 14:59:39;;;;;;;4.87;2.67;;;12.60;99.90;;;;;;8409823;28;20200;-69
2022/11/02 15:03:44;;;;;;;7.03;3.10;;;12.50;99.90;;;;;;8413298;28;20435;-71
2022/11/02 15:08:22;;;;;;;4.10;2.27;;;12.50;99.90;;;;;;8411933;28;20494;-69
2022/11/02 15:12:40;;;;;;;5.10;2.33;;;12.40;99.90;;;;;;8353297;28;20187;-69
2022/11/02 15:16:41;;;;;;;6.17;2.07;;;12.30;1.00;;;;;;8412864;28;20269;-70
2022/11/02 15:20:42;;;;;;;3.30;1.60;;;12.10;1.00;;;;;;8415339;28;20172;-70
2022/11/02 15:24:44;;;;;;;2.33;1.70;;;11.90;1.00;;;;;;8414969;28;20583;-69
2022/11/02 15:28:48;;;;;;;6.93;1.73;;;11.70;99.90;;;;;;8414806;28;20271;-69
2022/11/02 15:32:53;;;;;;;4.63;1.80;;;11.50;99.90;;;;;;8414578;28;20180;-69
2022/11/02 15:36:55;;;;;;;3.87;1.50;;;11.20;1.00;;;;;;8415923;28;20271;-69
2022/11/02 15:41:17;;;;;;;5.60;3.00;;;11.10;99.90;;;;;;8395621;28;20268;-70
2022/11/02 15:45:28;;;;;;;6.20;3.00;;;10.90;1.00;;;;;;8395628;28;20259;-68
2022/11/02 15:49:53;;;;;;;7.30;3.97;;;10.80;1.00;;;;;;8410344;28;20185;-69
2022/11/02 15:54:13;;;;;;;10.13;4.87;;;10.70;99.90;;;;;;8413864;28;20211;-69
2022/11/02 15:58:32;;;;;;;9.93;5.00;;;10.60;99.90;;;;;;8391005;28;20199;-69
2022/11/02 16:02:38;;;;;;;12.10;6.40;;;10.50;99.90;;;;;;8410650;28;20279;-68
2022/11/02 16:06:44;;;;;;;8.73;5.23;;;10.30;1.00;;;;;;8411306;28;20188;-69
2022/11/02 16:10:47;;;;;;;10.40;6.37;;;10.10;99.90;;;;;;8411555;28;20190;-69
2022/11/02 16:14:59;;;;;;;11.87;7.03;;;10.00;38.90;;;;;;8413293;28;20363;-68
2022/11/02 16:19:00;;;;;;;16.40;7.00;;;10.00;99.90;;;;;;8393743;28;20243;-69
2022/11/02 16:23:03;;;;;;;11.10;7.00;;;10.00;99.90;;;;;;8413478;28;20178;-68
2022/11/02 16:27:10;;;;;;;12.60;6.73;;;9.90;10.90;;;;;;8393950;28;20443;-69
2022/11/02 16:31:11;;;;;;;11.13;6.50;;;9.80;99.90;;;;;;8387673;28;20187;-69
2022/11/02 16:35:15;;;;;;;13.93;6.93;;;9.80;99.90;;;;;;8411368;28;20241;-69
2022/11/02 16:39:26;;;;;;;10.30;6.33;;;9.80;47.00;;;;;;8411054;28;20172;-69
2022/11/02 16:43:28;;;;;;;10.47;5.90;;;9.70;1.00;;;;;;8394958;28;20175;-69
2022/11/02 16:47:38;;;;;;;13.13;5.93;;;9.70;98.50;;;;;;8409059;28;20183;-70
2022/11/02 16:51:40;;;;;;;11.83;6.40;;;9.60;98.60;;;;;;8411933;28;20180;-69
2022/11/02 16:55:45;;;;;;;9.73;5.93;;;9.50;99.90;;;;;;8412192;28;20210;-68
2022/11/02 16:59:59;;;;;;;11.70;6.27;;;9.40;1.00;;;;;;8410954;28;20197;-69
2022/11/02 17:04:00;;;;;;;13.43;6.33;;;9.30;99.90;;;;;;8397746;28;20243;-69
2022/11/02 17:08:28;;;;;;;9.93;5.67;;;9.30;1.00;;;;;;8395107;28;20190;-70
2022/11/02 17:12:29;;;;;;;10.13;4.73;;;9.30;1.00;;;;;;8398744;28;20451;-68
2022/11/02 17:16:33;;;;;;;7.17;3.70;;;9.40;99.90;;;;;;8415481;28;20197;-71
2022/11/02 17:20:35;;;;;;;7.17;3.77;;;9.50;1.00;;;;;;8396750;28;20596;-69
2022/11/02 17:24:36;;;;;;;6.87;3.37;;;9.50;99.90;;;;;;8414326;28;20199;-69
2022/11/02 17:28:45;;;;;;;4.97;3.47;;;9.50;1.00;;;;;;8406862;28;20234;-69
2022/11/02 17:32:46;;;;;;;6.13;3.33;;;9.50;20.30;;;;;;8415854;28;20185;-69
2022/11/02 17:36:48;;;;;;;8.13;3.30;;;9.50;99.90;;;;;;8401496;28;20361;-69
2022/11/02 17:40:51;;;;;;;6.27;3.40;;;9.50;1.00;;;;;;8413422;28;20462;-69
2022/11/02 17:44:52;;;;;;;6.87;2.77;;;9.40;99.90;;;;;;8416821;28;20185;-69
2022/11/02 17:48:52;;;;;;;8.47;3.87;;;9.30;99.90;;;;;;8398830;28;20258;-69
2022/11/02 17:52:54;;;;;;;7.07;4.03;;;9.20;1.00;;;;;;8414843;28;20236;-69
2022/11/02 17:56:55;;;;;;;8.50;4.20;;;9.10;1.00;;;;;;8416113;28;20270;-68
2022/11/02 18:00:56;;;;;;;9.83;5.70;;;8.90;99.90;;;;;;8412399;28;20200;-68
2022/11/02 18:04:57;;;;;;;10.30;5.43;;;8.80;1.00;;;;;;8395403;28;20496;-69
2022/11/02 18:09:09;;;;;;;9.93;5.20;;;8.80;1.00;;;;;;8414192;28;20185;-68
2022/11/02 18:13:18;;;;;;;11.10;5.00;;;8.70;1.00;;;;;;8411927;28;20181;-68
2022/11/02 18:17:19;;;;;;;8.23;4.93;;;8.60;1.00;;;;;;8395339;28;20192;-68
2022/11/02 18:21:19;;;;;;;12.40;5.20;;;8.50;99.90;;;;;;8415673;28;20433;-68
2022/11/02 18:25:20;;;;;;;8.83;4.80;;;8.40;99.90;;;;;;8413415;28;20177;-68
2022/11/02 18:29:21;;;;;;;7.77;4.60;;;8.20;1.00;;;;;;8414714;28;20192;-68
2022/11/02 18:33:22;;;;;;;12.03;6.33;;;8.20;99.90;;;;;;8396012;28;20184;-69
2022/11/02 18:37:23;;;;;;;10.23;5.90;;;8.10;99.90;;;;;;8393259;28;20218;-69
2022/11/02 18:41:28;;;;;;;13.23;6.47;;;8.00;99.90;;;;;;8412393;28;20272;-69
2022/11/02 18:45:29;;;;;;;12.10;6.30;;;8.00;99.90;;;;;;8414217;28;20279;-68
2022/11/02 18:49:30;;;;;;;9.50;6.03;;;7.90;99.90;;;;;;8412284;28;20289;-69
2022/11/02 18:53:31;;;;;;;10.43;6.30;;;7.90;99.90;;;;;;8394999;28;20297;-69
2022/11/02 18:57:31;;;;;;;11.23;6.57;;;7.90;99.90;;;;;;8396092;28;20232;-70
2022/11/02 19:01:33;;;;;;;11.23;5.33;;;7.80;1.00;;;;;;8395542;28;20195;-69
2022/11/02 19:09:53;;;;;;;9.17;4.93;;;7.90;1.00;;;;;;8414455;28;20192;-69
2022/11/02 19:13:54;;;;;;;12.03;4.67;;;8.00;99.90;;;;;;8392906;28;20216;-69
2022/11/02 19:17:55;;;;;;;8.67;4.23;;;8.00;99.90;;;;;;8395110;28;20237;-69
2022/11/02 19:21:56;;;;;;;9.07;4.60;;;8.00;99.90;;;;;;8413467;28;20209;-69
2022/11/02 19:25:56;;;;;;;9.03;5.03;;;8.00;1.00;;;;;;8392022;28;20188;-70
2022/11/02 19:29:58;;;;;;;5.33;3.77;;;8.00;99.90;;;;;;8387164;28;20196;-70
2022/11/02 19:33:58;;;;;;;9.93;4.27;;;8.00;14.50;;;;;;8413318;28;20208;-70
2022/11/02 19:37:59;;;;;;;8.23;4.43;;;7.90;99.90;;;;;;8394823;28;20188;-69
2022/11/02 19:42:02;;;;;;;8.90;3.87;;;7.90;1.00;;;;;;8395268;28;20180;-69
2022/11/02 19:46:04;;;;;;;7.53;4.47;;;7.80;92.20;;;;;;8394627;28;20181;-69
2022/11/02 19:50:05;;;;;;;11.63;5.30;;;7.70;99.90;;;;;;8397733;28;20189;-69
2022/11/02 19:54:06;;;;;;;11.50;5.40;;;7.70;1.00;;;;;;8413343;28;20200;-69
2022/11/02 19:58:07;;;;;;;11.23;4.97;;;7.70;99.90;;;;;;8392750;28;20209;-69
2022/11/02 20:02:09;;;;;;;9.37;5.33;;;7.70;99.90;;;;;;8394808;28;20184;-69
2022/11/02 20:06:13;;;;;;;8.83;4.90;;;7.70;99.90;;;;;;8415331;28;20356;-70
2022/11/02 20:10:14;;;;;;;7.53;4.83;;;7.70;1.00;;;;;;8414868;28;20180;-70
2022/11/02 20:14:16;;;;;;;11.60;4.93;;;7.80;1.00;;;;;;8413702;28;20200;-70
2022/11/02 20:18:17;;;;;;;7.03;4.57;;;7.80;99.90;;;;;;8395400;28;20219;-70
2022/11/02 20:22:18;;;;;;;7.33;4.53;;;7.80;1.00;;;;;;8414842;28;20233;-70
2022/11/02 20:26:31;;;;;;;9.63;4.30;;;7.80;1.00;;;;;;8412703;28;20196;-70
2022/11/02 20:30:31;;;;;;;8.00;4.87;;;7.80;47.10;;;;;;8389895;28;20512;-70
2022/11/02 20:34:32;;;;;;;8.27;4.30;;;7.80;1.00;;;;;;8415159;28;20208;-70
2022/11/02 20:38:34;;;;;;;8.80;4.30;;;7.80;99.90;;;;;;8415236;28;20181;-70
2022/11/02 20:42:35;;;;;;;8.77;4.53;;;7.80;99.90;;;;;;8401642;28;20212;-69
2022/11/02 20:46:37;;;;;;;10.03;4.07;;;7.80;1.00;;;;;;8402471;28;20210;-71
2022/11/02 20:50:38;;;;;;;11.83;5.70;;;7.60;1.00;;;;;;8398810;28;20181;-70
2022/11/02 20:54:38;;;;;;;11.57;5.17;;;7.50;34.20;;;;;;8419779;28;20216;-70
2022/11/02 20:58:39;;;;;;;8.00;5.07;;;7.40;1.00;;;;;;8398374;28;20200;-69
2022/11/02 21:02:40;;;;;;;10.30;5.20;;;7.30;1.00;;;;;;8400684;28;20259;-69
2022/11/02 21:06:41;;;;;;;14.53;5.97;;;7.20;8.20;;;;;;8398803;28;20190;-70
2022/11/02 21:10:42;;;;;;;13.33;6.70;;;7.20;1.00;;;;;;8399372;28;20212;-70
2022/11/02 21:14:43;;;;;;;14.30;7.60;;;7.00;99.90;;;;;;8415594;28;20204;-70
2022/11/02 21:18:44;;;;;;;11.17;5.73;;;7.10;99.90;;;;;;8416404;28;20195;-70
2022/11/02 21:22:48;;;;;;;9.63;5.20;;;7.20;99.90;;;;;;8397483;28;20212;-70
2022/11/02 21:26:50;;;;;;;11.13;5.93;;;7.00;99.90;;;;;;8417375;28;20180;-69
2022/11/02 21:30:50;;;;;;;14.10;6.97;;;6.90;1.00;;;;;;8417407;28;20234;-69
2022/11/02 21:34:51;;;;;;;11.47;6.83;;;6.90;99.90;;;;;;8399249;28;20204;-70
2022/11/02 21:38:52;;;;;;;12.07;6.40;;;6.80;1.00;;;;;;8418388;28;20465;-69